Time;durP1;ratioP1;P1;durP2;ratioP2;P2;SDS_P1;SDS_P2;PMS_P1;PMS_P2;Temp;Humidity;BMP_temperature;BMP_pressure;BME280_temperature;BME280_humidity;BME280_pressure;Samples;Min_cycle;Max_cycle;Signal;HPM_P1;HPM_P2
2020/12/28 00:01:36;;;;;;;8.82;2.15;;;4.30;99.90;;;;;;5090430;28;20024;-82
2020/12/28 00:04:01;;;;;;;7.85;2.00;;;4.30;99.90;;;;;;5091872;28;20539;-82
2020/12/28 00:06:27;;;;;;;9.85;2.72;;;4.30;99.90;;;;;;5073645;28;20082;-79
2020/12/28 00:08:53;;;;;;;7.78;1.70;;;4.30;99.90;;;;;;5073256;28;20085;-82
2020/12/28 00:11:19;;;;;;;8.90;1.50;;;4.20;99.90;;;;;;5090205;28;20482;-83
2020/12/28 00:13:46;;;;;;;6.75;1.95;;;4.20;99.90;;;;;;5090153;28;20028;-84
2020/12/28 00:16:13;;;;;;;8.40;1.50;;;4.20;99.90;;;;;;5092168;28;20083;-79
2020/12/28 00:18:39;;;;;;;6.93;1.23;;;4.20;99.90;;;;;;5090130;28;20032;-81
2020/12/28 00:21:04;;;;;;;6.00;1.10;;;4.30;99.90;;;;;;5090199;28;20032;-81
2020/12/28 00:23:30;;;;;;;5.70;2.13;;;4.30;99.90;;;;;;5073620;28;20082;-82
2020/12/28 00:25:56;;;;;;;3.08;1.20;;;4.30;99.90;;;;;;5073414;28;20028;-79
2020/12/28 00:28:21;;;;;;;5.45;0.98;;;4.40;99.90;;;;;;5073095;28;20044;-81
2020/12/28 00:30:47;;;;;;;6.25;1.38;;;4.40;99.90;;;;;;5090014;28;20028;-81
2020/12/28 00:33:12;;;;;;;3.33;1.52;;;4.50;99.90;;;;;;5072957;28;20032;-81
2020/12/28 00:35:38;;;;;;;4.32;1.55;;;4.50;99.90;;;;;;5073724;28;20028;-81
2020/12/28 00:38:04;;;;;;;12.60;2.65;;;4.60;99.90;;;;;;5089806;28;20062;-82
2020/12/28 00:40:29;;;;;;;3.83;1.23;;;4.60;99.90;;;;;;5089945;28;20036;-83
2020/12/28 00:42:55;;;;;;;4.50;1.40;;;4.70;99.90;;;;;;5091636;28;20027;-80
2020/12/28 00:45:21;;;;;;;6.95;2.08;;;4.70;99.90;;;;;;5072974;28;20166;-80
2020/12/28 00:47:46;;;;;;;8.40;1.85;;;4.80;99.90;;;;;;5072560;28;20020;-83
2020/12/28 00:50:12;;;;;;;11.70;1.88;;;4.80;99.90;;;;;;5089700;28;20494;-81
2020/12/28 00:52:38;;;;;;;11.20;1.85;;;4.80;99.90;;;;;;5089388;28;20067;-81
2020/12/28 00:55:03;;;;;;;15.05;2.95;;;4.80;99.90;;;;;;5072660;28;20041;-83
2020/12/28 00:57:29;;;;;;;12.75;2.67;;;4.90;99.90;;;;;;5091681;28;20397;-82
2020/12/28 00:59:56;;;;;;;9.55;2.45;;;4.90;99.90;;;;;;5089619;28;20042;-83
2020/12/28 01:02:22;;;;;;;16.90;3.33;;;4.90;99.90;;;;;;5072789;28;20028;-83
2020/12/28 01:04:47;;;;;;;12.57;3.33;;;4.90;99.90;;;;;;5089516;28;20466;-81
2020/12/28 01:07:16;;;;;;;17.75;4.07;;;5.00;99.90;;;;;;5089893;28;20020;-81
2020/12/28 01:09:42;;;;;;;13.90;3.08;;;5.00;99.90;;;;;;5089856;28;20032;-81
2020/12/28 01:12:07;;;;;;;19.15;3.65;;;5.00;99.90;;;;;;5089510;28;20028;-79
2020/12/28 01:14:33;;;;;;;16.92;3.35;;;5.10;99.90;;;;;;5072361;28;20402;-80
2020/12/28 01:16:59;;;;;;;14.10;3.08;;;5.00;99.90;;;;;;5072446;28;20028;-82
2020/12/28 01:19:24;;;;;;;21.92;3.28;;;5.00;99.90;;;;;;5088540;28;20119;-81
2020/12/28 01:21:50;;;;;;;19.83;3.20;;;5.10;99.90;;;;;;5071697;28;20035;-82
2020/12/28 01:24:16;;;;;;;15.68;2.83;;;5.10;99.90;;;;;;5089079;28;20020;-79
2020/12/28 01:26:44;;;;;;;17.95;3.63;;;5.10;99.90;;;;;;5071850;28;20084;-82
2020/12/28 01:29:11;;;;;;;12.40;2.55;;;5.10;99.90;;;;;;5072074;28;20495;-81
2020/12/28 01:31:37;;;;;;;15.30;2.75;;;5.20;99.90;;;;;;5088738;28;20073;-81
2020/12/28 01:34:03;;;;;;;12.02;2.00;;;5.20;99.90;;;;;;5088780;28;20055;-80
2020/12/28 01:36:28;;;;;;;18.08;2.67;;;5.20;99.90;;;;;;5071684;28;20115;-82
2020/12/28 01:38:54;;;;;;;8.32;2.28;;;5.30;99.90;;;;;;5088198;28;20039;-81
2020/12/28 01:41:20;;;;;;;12.82;2.38;;;5.30;99.90;;;;;;5088465;28;20397;-83
2020/12/28 01:43:45;;;;;;;15.20;2.65;;;5.30;99.90;;;;;;5088639;28;20032;-82
2020/12/28 01:46:12;;;;;;;14.80;2.58;;;5.20;99.90;;;;;;5071485;28;20123;-83
2020/12/28 01:48:38;;;;;;;11.55;2.70;;;5.20;99.90;;;;;;5071336;28;20036;-79
2020/12/28 01:51:04;;;;;;;14.77;1.90;;;5.20;99.90;;;;;;5071516;28;20127;-79
2020/12/28 01:53:30;;;;;;;15.25;2.40;;;5.20;99.90;;;;;;5071264;28;20115;-83
2020/12/28 01:56:02;;;;;;;16.65;2.67;;;5.20;99.90;;;;;;5088449;28;20043;-81
2020/12/28 01:58:28;;;;;;;14.88;2.50;;;5.20;99.90;;;;;;5089348;28;20091;-82
2020/12/28 02:00:54;;;;;;;19.80;2.90;;;5.30;99.90;;;;;;5071445;28;20043;-82
2020/12/28 02:03:21;;;;;;;20.90;3.97;;;5.30;99.90;;;;;;5087789;28;20459;-81
2020/12/28 02:05:47;;;;;;;12.90;2.88;;;5.30;99.90;;;;;;5088196;28;20062;-81
2020/12/28 02:08:12;;;;;;;16.05;2.58;;;5.40;99.90;;;;;;5087829;28;20047;-84
2020/12/28 02:10:38;;;;;;;13.65;2.42;;;5.40;99.90;;;;;;5088018;28;20028;-80
2020/12/28 02:13:04;;;;;;;23.52;4.10;;;5.40;99.90;;;;;;5087737;28;20028;-84
2020/12/28 02:15:30;;;;;;;26.15;4.63;;;5.40;99.90;;;;;;5087787;28;20036;-82
2020/12/28 02:17:56;;;;;;;16.63;2.83;;;5.50;99.90;;;;;;5087720;28;20494;-81
2020/12/28 02:20:21;;;;;;;18.13;2.90;;;5.50;99.90;;;;;;5087779;28;20478;-83
2020/12/28 02:22:47;;;;;;;19.48;3.75;;;5.60;99.90;;;;;;5087765;28;20055;-81
2020/12/28 02:25:12;;;;;;;29.77;3.08;;;5.60;99.90;;;;;;5088956;28;20073;-81
2020/12/28 02:27:38;;;;;;;18.20;3.25;;;5.60;99.90;;;;;;5071431;28;20125;-81
2020/12/28 02:30:04;;;;;;;23.35;2.90;;;5.70;99.90;;;;;;5070689;28;20051;-82
2020/12/28 02:32:30;;;;;;;17.42;2.53;;;5.70;99.90;;;;;;5088550;28;20081;-80
2020/12/28 02:34:56;;;;;;;15.23;2.78;;;5.70;99.90;;;;;;5087603;28;20107;-79
2020/12/28 02:37:22;;;;;;;22.05;3.55;;;5.70;99.90;;;;;;5088852;28;20107;-82
2020/12/28 02:39:48;;;;;;;22.85;2.80;;;5.80;99.90;;;;;;5090372;28;20548;-80
2020/12/28 02:42:13;;;;;;;16.98;3.08;;;5.80;99.80;;;;;;5088133;28;20031;-82
2020/12/28 02:44:39;;;;;;;18.25;3.33;;;5.90;99.80;;;;;;5070262;28;20028;-83
2020/12/28 02:47:05;;;;;;;10.57;2.10;;;5.90;99.70;;;;;;5086561;28;20035;-82
2020/12/28 02:49:30;;;;;;;15.40;3.22;;;5.90;99.70;;;;;;5086272;28;20390;-80
2020/12/28 02:51:56;;;;;;;16.50;3.67;;;6.00;99.60;;;;;;5086080;28;20038;-80
2020/12/28 02:54:22;;;;;;;20.48;2.60;;;6.00;99.50;;;;;;5086058;28;20437;-83
2020/12/28 02:56:47;;;;;;;13.93;2.22;;;6.00;99.50;;;;;;5086255;28;20443;-83
2020/12/28 02:59:13;;;;;;;20.65;2.78;;;6.00;99.50;;;;;;5069397;28;20038;-83
2020/12/28 03:01:39;;;;;;;20.38;2.30;;;6.00;99.40;;;;;;5069235;28;20119;-80
2020/12/28 03:04:04;;;;;;;15.38;2.50;;;6.00;99.50;;;;;;5069186;28;20059;-79
2020/12/28 03:06:31;;;;;;;11.90;2.25;;;5.90;99.50;;;;;;5069060;28;20078;-81
2020/12/28 03:08:57;;;;;;;26.48;3.67;;;6.00;99.50;;;;;;5087773;28;20490;-85
2020/12/28 03:11:23;;;;;;;17.15;2.72;;;5.90;99.50;;;;;;5086094;28;20032;-83
2020/12/28 03:13:49;;;;;;;14.15;2.33;;;5.90;99.60;;;;;;5087674;28;20592;-82
2020/12/28 03:16:14;;;;;;;20.63;4.18;;;5.90;99.60;;;;;;5086415;28;20028;-81
2020/12/28 03:18:41;;;;;;;17.10;2.17;;;5.90;99.70;;;;;;5086276;28;20032;-84
2020/12/28 03:21:07;;;;;;;16.38;2.80;;;5.90;99.70;;;;;;5086449;28;20485;-81
2020/12/28 03:23:33;;;;;;;15.00;3.10;;;5.90;99.70;;;;;;5069537;28;20032;-83
2020/12/28 03:25:58;;;;;;;12.15;2.13;;;5.90;99.70;;;;;;5069431;28;20386;-82
2020/12/28 03:28:24;;;;;;;8.90;1.70;;;5.90;99.80;;;;;;5042637;28;773136;-83
2020/12/28 03:30:50;;;;;;;9.55;1.52;;;6.00;99.80;;;;;;5070621;28;20078;-80
2020/12/28 03:33:16;;;;;;;7.35;1.52;;;6.00;99.80;;;;;;5070409;28;20028;-81
2020/12/28 03:35:42;;;;;;;6.32;1.83;;;6.00;99.80;;;;;;5086921;28;20550;-81
2020/12/28 03:38:07;;;;;;;8.00;1.55;;;6.00;99.70;;;;;;5070338;28;20109;-81
2020/12/28 03:40:33;;;;;;;5.40;1.30;;;6.00;99.70;;;;;;5088344;28;20498;-80
2020/12/28 03:42:59;;;;;;;7.57;1.20;;;6.00;99.70;;;;;;5087232;28;20081;-79
2020/12/28 03:45:25;;;;;;;4.88;0.98;;;6.10;99.70;;;;;;5070325;28;20111;-79
2020/12/28 03:47:51;;;;;;;6.30;0.90;;;6.00;99.60;;;;;;5070029;28;20547;-83
2020/12/28 03:50:16;;;;;;;6.82;0.82;;;6.00;99.50;;;;;;5086758;28;20062;-83
2020/12/28 03:52:42;;;;;;;5.88;1.05;;;5.90;99.40;;;;;;5069562;28;20403;-80
2020/12/28 03:55:08;;;;;;;2.47;0.60;;;5.90;99.50;;;;;;5087086;28;20036;-83
2020/12/28 03:57:34;;;;;;;5.28;1.35;;;5.90;99.60;;;;;;5086836;28;20032;-81
2020/12/28 03:59:59;;;;;;;2.22;0.70;;;5.90;99.60;;;;;;5070036;28;20068;-81
2020/12/28 04:02:25;;;;;;;3.90;0.88;;;5.90;99.60;;;;;;5073563;28;20401;-81
2020/12/28 04:04:51;;;;;;;3.92;0.50;;;5.90;99.50;;;;;;5090212;28;20487;-80
2020/12/28 04:07:18;;;;;;;2.55;0.50;;;5.90;99.40;;;;;;5091246;28;20099;-82
2020/12/28 04:09:44;;;;;;;2.15;0.55;;;5.90;99.40;;;;;;5090143;28;20028;-82
2020/12/28 04:12:10;;;;;;;2.83;0.55;;;5.90;99.30;;;;;;5073162;28;20036;-82
2020/12/28 04:14:35;;;;;;;6.32;1.00;;;5.80;99.20;;;;;;5073664;28;20436;-82
2020/12/28 04:17:01;;;;;;;3.28;0.45;;;5.70;99.20;;;;;;5089899;28;20055;-82
2020/12/28 04:19:27;;;;;;;2.20;0.60;;;5.60;99.20;;;;;;5089509;28;20448;-80
2020/12/28 04:21:52;;;;;;;4.78;0.60;;;5.50;99.30;;;;;;5089812;28;20051;-81
2020/12/28 04:24:18;;;;;;;5.90;0.75;;;5.50;99.30;;;;;;5073124;28;20028;-81
2020/12/28 04:26:44;;;;;;;3.70;1.15;;;5.40;99.30;;;;;;5072863;28;20479;-81
2020/12/28 04:29:11;;;;;;;2.17;0.50;;;5.40;99.40;;;;;;5073099;28;20059;-83
2020/12/28 04:31:37;;;;;;;4.28;0.50;;;5.40;99.40;;;;;;5089823;28;20032;-80
2020/12/28 04:34:04;;;;;;;2.63;0.63;;;5.40;99.40;;;;;;5090042;28;20085;-84
2020/12/28 04:36:30;;;;;;;3.83;0.73;;;5.40;99.40;;;;;;5089696;28;20143;-80
2020/12/28 04:38:56;;;;;;;2.00;0.47;;;5.30;99.30;;;;;;5090647;28;20103;-81
2020/12/28 04:41:21;;;;;;;4.72;0.75;;;5.30;99.30;;;;;;5072414;28;20035;-81
2020/12/28 04:43:47;;;;;;;0.93;0.45;;;5.20;99.20;;;;;;5089286;28;20024;-80
2020/12/28 04:46:13;;;;;;;2.97;0.82;;;5.10;99.30;;;;;;5072506;28;20028;-79
2020/12/28 04:48:39;;;;;;;2.50;0.52;;;5.10;99.50;;;;;;5072118;28;20090;-82
2020/12/28 04:51:05;;;;;;;3.47;0.60;;;5.00;99.50;;;;;;5090354;28;20028;-82
2020/12/28 04:53:30;;;;;;;3.25;0.90;;;5.00;99.60;;;;;;5089238;28;20556;-78
2020/12/28 04:55:57;;;;;;;2.88;0.35;;;5.00;99.60;;;;;;5072450;28;20028;-79
2020/12/28 04:58:23;;;;;;;4.13;0.40;;;5.00;99.70;;;;;;5090511;28;20024;-81
2020/12/28 05:00:59;;;;;;;4.53;0.45;;;4.90;99.70;;;;;;5072029;28;20074;-80
2020/12/28 05:03:29;;;;;;;2.13;0.55;;;4.90;99.80;;;;;;5072173;28;20482;-80
2020/12/28 05:05:55;;;;;;;4.38;0.40;;;4.90;99.80;;;;;;5088871;28;20032;-82
2020/12/28 05:08:22;;;;;;;3.20;0.55;;;4.90;99.80;;;;;;5090408;28;20062;-81
2020/12/28 05:10:49;;;;;;;1.83;0.30;;;4.90;99.70;;;;;;5088720;28;20573;-82
2020/12/28 05:13:17;;;;;;;3.25;0.55;;;4.90;99.80;;;;;;5087911;28;20039;-79
2020/12/28 05:15:57;;;;;;;2.40;0.55;;;4.80;99.90;;;;;;5090003;28;20019;-80
2020/12/28 05:18:24;;;;;;;5.40;1.17;;;4.80;99.90;;;;;;5090055;28;20031;-80
2020/12/28 05:20:52;;;;;;;2.85;0.43;;;4.80;99.90;;;;;;5088471;28;20409;-81
2020/12/28 05:23:18;;;;;;;5.45;1.02;;;4.80;99.90;;;;;;5071992;28;20028;-82
2020/12/28 05:25:49;;;;;;;6.53;0.75;;;4.90;99.90;;;;;;5071457;28;20516;-82
2020/12/28 05:28:19;;;;;;;1.58;0.60;;;5.00;99.90;;;;;;5088614;28;20051;-80
2020/12/28 05:30:45;;;;;;;1.10;0.50;;;5.10;99.90;;;;;;5088010;28;20120;-81
2020/12/28 05:33:12;;;;;;;5.65;0.60;;;5.20;99.90;;;;;;5088665;28;20085;-79
2020/12/28 05:35:39;;;;;;;10.25;1.08;;;5.30;99.90;;;;;;5089439;28;20024;-81
2020/12/28 05:38:06;;;;;;;3.55;0.70;;;5.40;99.90;;;;;;5071434;28;20092;-82
2020/12/28 05:40:36;;;;;;;3.03;0.63;;;5.50;99.90;;;;;;5087974;28;20025;-81
2020/12/28 05:43:02;;;;;;;5.63;2.28;;;5.50;99.90;;;;;;5087801;28;20058;-81
2020/12/28 05:45:28;;;;;;;5.55;0.60;;;5.60;99.90;;;;;;5071107;28;20043;-80
2020/12/28 05:47:56;;;;;;;3.25;0.82;;;5.70;99.90;;;;;;5087911;28;20027;-81
2020/12/28 05:50:24;;;;;;;7.63;1.15;;;5.70;99.90;;;;;;5087684;28;20040;-79
2020/12/28 05:52:56;;;;;;;2.15;0.50;;;5.80;99.90;;;;;;5087731;28;20053;-81
2020/12/28 05:55:24;;;;;;;2.13;0.68;;;5.80;99.90;;;;;;5089059;28;20093;-80
2020/12/28 05:57:50;;;;;;;6.50;0.98;;;5.80;99.90;;;;;;5088973;28;20028;-80
2020/12/28 06:00:17;;;;;;;6.47;1.40;;;5.90;99.90;;;;;;5087414;28;20098;-79
2020/12/28 06:02:43;;;;;;;2.25;0.60;;;5.90;99.90;;;;;;5087592;28;20027;-82
2020/12/28 06:05:13;;;;;;;3.35;0.47;;;5.90;99.90;;;;;;5087406;28;20061;-79
2020/12/28 06:07:39;;;;;;;4.53;0.52;;;6.00;99.90;;;;;;5087808;28;20020;-82
2020/12/28 06:10:06;;;;;;;0.82;0.30;;;6.00;99.90;;;;;;5089391;28;20028;-79
2020/12/28 06:12:32;;;;;;;2.20;0.63;;;6.00;99.90;;;;;;5089014;28;20082;-80
2020/12/28 06:14:59;;;;;;;3.08;0.45;;;6.00;99.90;;;;;;5087767;28;20035;-80
2020/12/28 06:17:35;;;;;;;2.85;0.55;;;6.00;99.90;;;;;;5071146;28;20085;-80
2020/12/28 06:20:05;;;;;;;1.75;0.70;;;6.00;99.90;;;;;;5088701;28;20035;-80
2020/12/28 06:22:34;;;;;;;1.42;0.50;;;6.10;99.80;;;;;;5088622;28;20073;-81
2020/12/28 06:25:02;;;;;;;3.73;1.13;;;6.10;99.80;;;;;;5087446;28;20479;-80
2020/12/28 06:27:38;;;;;;;2.42;0.50;;;6.10;99.70;;;;;;5089151;28;20046;-79
2020/12/28 06:30:17;;;;;;;1.80;0.22;;;6.20;99.60;;;;;;5070463;28;20115;-80
2020/12/28 06:33:03;;;;;;;4.63;0.63;;;6.10;99.50;;;;;;5087202;28;20024;-79
2020/12/28 06:35:30;;;;;;;1.67;0.40;;;6.10;99.50;;;;;;5088487;28;20028;-80
2020/12/28 06:37:59;;;;;;;1.40;0.65;;;6.10;99.40;;;;;;5070431;28;20444;-83
2020/12/28 06:40:29;;;;;;;1.60;0.20;;;6.20;99.30;;;;;;5088256;28;20130;-82
2020/12/28 06:43:05;;;;;;;4.38;0.63;;;6.20;99.30;;;;;;5087418;28;20034;-82
2020/12/28 06:45:30;;;;;;;2.13;0.75;;;6.20;99.30;;;;;;5087461;28;20481;-80
2020/12/28 06:47:56;;;;;;;2.95;0.60;;;6.10;99.20;;;;;;5088067;28;20111;-81
2020/12/28 06:50:22;;;;;;;2.60;0.50;;;6.20;99.30;;;;;;5087091;28;20028;-83
2020/12/28 06:52:52;;;;;;;2.88;0.75;;;6.20;99.20;;;;;;5087076;28;20514;-80
2020/12/28 06:55:17;;;;;;;0.95;0.30;;;6.20;99.10;;;;;;5088057;28;20083;-83
2020/12/28 06:57:43;;;;;;;1.95;0.52;;;6.20;99.00;;;;;;5070431;28;20544;-83
2020/12/28 07:00:18;;;;;;;4.65;0.68;;;6.20;99.00;;;;;;5070182;28;20028;-80
2020/12/28 07:02:52;;;;;;;1.83;0.47;;;6.20;99.00;;;;;;5087017;28;20020;-79
2020/12/28 07:05:26;;;;;;;5.55;0.80;;;6.10;99.00;;;;;;5088194;28;20506;-82
2020/12/28 07:07:52;;;;;;;0.75;0.50;;;6.20;99.00;;;;;;5069880;28;20028;-80
2020/12/28 07:10:23;;;;;;;4.68;0.55;;;6.20;99.10;;;;;;5088179;28;20402;-82
2020/12/28 07:12:50;;;;;;;1.55;0.47;;;6.20;99.10;;;;;;5086981;28;20028;-80
2020/12/28 07:15:18;;;;;;;5.57;0.85;;;6.20;99.00;;;;;;5086799;28;20024;-81
2020/12/28 07:17:44;;;;;;;1.80;0.55;;;6.20;99.00;;;;;;5069907;28;20028;-80
2020/12/28 07:20:14;;;;;;;1.65;0.50;;;6.20;99.00;;;;;;5086757;28;20036;-82
2020/12/28 07:22:43;;;;;;;2.13;0.63;;;6.20;98.90;;;;;;5088007;28;20024;-82
2020/12/28 07:25:11;;;;;;;3.55;0.70;;;6.20;98.90;;;;;;5086706;28;20360;-79
2020/12/28 07:27:42;;;;;;;3.97;0.70;;;6.20;98.80;;;;;;5088028;28;20075;-81
2020/12/28 07:30:13;;;;;;;7.03;0.70;;;6.20;98.80;;;;;;5087848;28;20075;-78
2020/12/28 07:32:40;;;;;;;1.23;0.52;;;6.20;98.80;;;;;;5086517;28;20120;-81
2020/12/28 07:35:07;;;;;;;4.45;1.40;;;6.20;98.70;;;;;;5088613;28;20036;-81
2020/12/28 07:37:38;;;;;;;3.22;0.73;;;6.20;98.70;;;;;;5073427;28;20123;-80
2020/12/28 07:40:05;;;;;;;2.78;1.30;;;6.20;98.70;;;;;;5090313;28;20069;-81
2020/12/28 07:42:31;;;;;;;1.42;0.45;;;6.20;98.60;;;;;;5090408;28;20543;-80
2020/12/28 07:45:03;;;;;;;3.40;0.40;;;6.20;98.60;;;;;;5090069;28;20028;-82
2020/12/28 07:47:58;;;;;;;4.05;0.70;;;6.10;98.60;;;;;;5091583;28;20019;-81
2020/12/28 07:50:25;;;;;;;2.40;0.50;;;6.10;98.60;;;;;;5090163;28;20028;-80
2020/12/28 07:53:14;;;;;;;3.67;0.60;;;6.10;98.60;;;;;;5073192;28;20043;-80
2020/12/28 07:56:06;;;;;;;5.20;0.70;;;6.10;98.60;;;;;;5090105;28;20074;-80
2020/12/28 07:58:41;;;;;;;7.57;0.80;;;6.10;98.50;;;;;;5091152;28;20028;-80
2020/12/28 08:01:24;;;;;;;4.03;1.08;;;6.10;98.50;;;;;;5089923;28;20119;-79
2020/12/28 08:03:54;;;;;;;2.80;0.85;;;6.10;98.50;;;;;;5090731;28;20262;-82
2020/12/28 08:06:20;;;;;;;5.75;1.00;;;6.10;98.50;;;;;;5089550;28;20021;-81
2020/12/28 08:08:46;;;;;;;4.35;1.23;;;6.10;98.50;;;;;;5089605;28;20028;-81
2020/12/28 08:11:13;;;;;;;3.80;0.98;;;6.10;98.50;;;;;;5089665;28;20062;-85
2020/12/28 08:13:39;;;;;;;2.95;0.65;;;6.10;98.40;;;;;;5090793;28;20023;-81
2020/12/28 08:16:16;;;;;;;3.58;0.75;;;6.10;98.40;;;;;;5089784;28;20383;-80
2020/12/28 08:18:55;;;;;;;5.18;0.55;;;6.10;98.40;;;;;;5072826;28;20025;-83
2020/12/28 08:21:24;;;;;;;4.70;0.90;;;6.00;98.40;;;;;;5091289;28;20035;-80
2020/12/28 08:23:57;;;;;;;7.68;1.10;;;6.00;98.50;;;;;;5089982;28;20036;-80
2020/12/28 08:26:25;;;;;;;5.45;1.20;;;6.10;98.50;;;;;;5089581;28;20020;-79
2020/12/28 08:28:53;;;;;;;11.02;1.00;;;6.10;98.50;;;;;;5090821;28;20055;-79
2020/12/28 08:31:35;;;;;;;5.70;0.95;;;6.10;98.70;;;;;;5089495;28;20112;-80
2020/12/28 08:34:15;;;;;;;6.22;1.20;;;6.10;98.50;;;;;;5073073;28;20077;-83
2020/12/28 08:36:50;;;;;;;7.47;1.35;;;6.10;98.50;;;;;;5090467;28;20024;-81
2020/12/28 08:39:21;;;;;;;7.03;1.42;;;6.10;98.40;;;;;;5088801;28;20514;-80
2020/12/28 08:41:58;;;;;;;5.90;1.23;;;6.10;98.40;;;;;;5089043;28;20053;-81
2020/12/28 08:44:47;;;;;;;7.97;1.40;;;6.10;98.50;;;;;;5088794;28;20081;-80
2020/12/28 08:47:13;;;;;;;4.55;1.27;;;6.10;98.40;;;;;;5090037;28;20095;-82
2020/12/28 08:49:45;;;;;;;9.85;1.38;;;6.10;98.50;;;;;;5072039;28;20055;-79
2020/12/28 08:52:13;;;;;;;5.70;1.85;;;6.10;98.50;;;;;;5089886;28;20128;-81
2020/12/28 08:54:40;;;;;;;3.88;1.13;;;6.20;98.40;;;;;;5090055;28;20024;-82
2020/12/28 08:57:06;;;;;;;3.58;1.15;;;6.20;98.50;;;;;;5088893;28;20070;-81
2020/12/28 08:59:32;;;;;;;9.40;1.90;;;6.20;98.50;;;;;;5088884;28;20436;-82
2020/12/28 09:01:58;;;;;;;8.05;3.13;;;6.30;98.50;;;;;;5088870;28;20475;-81
2020/12/28 09:04:24;;;;;;;9.80;3.25;;;6.40;98.40;;;;;;5072115;28;20055;-79
2020/12/28 09:06:53;;;;;;;6.63;1.10;;;6.40;98.30;;;;;;5089350;28;20036;-80
2020/12/28 09:09:19;;;;;;;8.10;1.52;;;6.40;98.20;;;;;;5090288;28;20024;-79
2020/12/28 09:11:46;;;;;;;11.77;2.42;;;6.50;98.20;;;;;;5072264;28;20032;-81
2020/12/28 09:14:12;;;;;;;6.28;1.70;;;6.50;98.10;;;;;;5090390;28;20046;-82
2020/12/28 09:16:38;;;;;;;10.88;1.95;;;6.60;98.10;;;;;;5088723;28;20032;-81
2020/12/28 09:19:04;;;;;;;8.60;2.22;;;6.60;98.00;;;;;;5089087;28;20097;-78
2020/12/28 09:21:32;;;;;;;9.88;1.75;;;6.60;97.90;;;;;;5073776;28;20055;-79
2020/12/28 09:23:57;;;;;;;11.85;2.08;;;6.60;97.90;;;;;;5091792;28;20481;-81
2020/12/28 09:26:23;;;;;;;8.90;2.47;;;6.60;97.80;;;;;;5092165;28;20035;-79
2020/12/28 09:28:49;;;;;;;10.23;2.28;;;6.60;97.90;;;;;;5074913;28;20048;-81
2020/12/28 09:31:16;;;;;;;13.88;1.55;;;6.70;97.80;;;;;;5092601;28;20028;-80
2020/12/28 09:33:41;;;;;;;8.13;2.22;;;6.70;97.80;;;;;;5077659;28;20028;-79
2020/12/28 09:36:07;;;;;;;16.85;4.97;;;6.70;97.70;;;;;;5076219;28;20035;-79
2020/12/28 09:38:33;;;;;;;14.73;4.22;;;6.70;97.60;;;;;;5075032;28;20029;-80
2020/12/28 09:40:58;;;;;;;8.20;2.53;;;6.60;97.60;;;;;;5092252;28;20029;-79
2020/12/28 09:43:24;;;;;;;11.52;3.20;;;6.60;97.60;;;;;;5093198;28;20020;-81
2020/12/28 09:45:50;;;;;;;15.32;4.22;;;6.60;97.60;;;;;;5076347;28;20024;-80
2020/12/28 09:48:16;;;;;;;9.85;3.03;;;6.70;97.60;;;;;;5077080;28;20031;-80
2020/12/28 09:50:41;;;;;;;7.40;2.97;;;6.60;97.60;;;;;;5075663;28;20048;-80
2020/12/28 09:53:07;;;;;;;9.77;2.85;;;6.60;97.50;;;;;;5074377;28;20046;-79
2020/12/28 09:55:32;;;;;;;16.27;2.47;;;6.60;97.60;;;;;;5090338;28;20471;-82
2020/12/28 09:57:58;;;;;;;17.80;2.58;;;6.60;97.60;;;;;;5087794;28;20059;-81
2020/12/28 10:00:24;;;;;;;11.75;2.10;;;6.70;97.60;;;;;;5071273;28;20028;-82
2020/12/28 10:02:49;;;;;;;14.30;2.17;;;6.70;97.60;;;;;;5089301;28;20115;-79
2020/12/28 10:05:15;;;;;;;11.65;1.88;;;6.70;97.60;;;;;;5089135;28;20048;-80
2020/12/28 10:07:41;;;;;;;6.32;1.88;;;6.70;97.50;;;;;;5071245;28;20028;-79
2020/12/28 10:10:08;;;;;;;9.27;2.60;;;6.80;97.50;;;;;;5071841;28;20025;-80
2020/12/28 10:12:36;;;;;;;5.22;1.52;;;6.80;97.50;;;;;;5088561;28;20478;-81
2020/12/28 10:15:03;;;;;;;10.73;2.53;;;6.80;97.40;;;;;;5090466;28;20028;-81
2020/12/28 10:17:29;;;;;;;10.15;1.75;;;6.80;97.40;;;;;;5087646;28;20051;-78
2020/12/28 10:19:55;;;;;;;16.23;2.15;;;6.80;97.40;;;;;;5071066;28;20524;-81
2020/12/28 10:22:20;;;;;;;16.77;2.13;;;6.90;97.40;;;;;;5070998;28;20111;-79
2020/12/28 10:24:46;;;;;;;9.57;2.35;;;6.90;97.30;;;;;;5070909;28;20439;-80
2020/12/28 10:27:12;;;;;;;14.85;2.60;;;6.90;97.40;;;;;;5087020;28;20040;-77
2020/12/28 10:29:38;;;;;;;8.48;2.38;;;6.90;97.30;;;;;;5086978;28;20079;-79
2020/12/28 10:32:04;;;;;;;7.93;2.75;;;7.00;97.40;;;;;;5086985;28;20060;-82
2020/12/28 10:34:29;;;;;;;9.00;1.80;;;7.00;97.40;;;;;;5086456;28;20032;-80
2020/12/28 10:36:55;;;;;;;12.80;2.08;;;7.10;97.30;;;;;;5086520;28;20473;-82
2020/12/28 10:39:21;;;;;;;6.18;1.60;;;7.10;97.20;;;;;;5085820;28;20039;-81
2020/12/28 10:41:46;;;;;;;4.53;1.30;;;7.10;97.20;;;;;;5086512;28;20028;-81
2020/12/28 10:44:12;;;;;;;8.40;1.85;;;7.10;97.30;;;;;;5069299;28;20020;-80
2020/12/28 10:46:38;;;;;;;4.10;1.48;;;7.10;97.30;;;;;;5069463;28;20100;-79
2020/12/28 10:49:05;;;;;;;9.52;1.90;;;7.10;97.30;;;;;;5086486;28;20492;-79
2020/12/28 10:51:31;;;;;;;6.80;1.60;;;7.10;97.30;;;;;;5069480;28;20478;-80
2020/12/28 10:53:56;;;;;;;3.45;1.02;;;7.10;97.30;;;;;;5087595;28;20027;-82
2020/12/28 10:56:27;;;;;;;6.10;1.10;;;7.10;97.30;;;;;;5068871;28;20024;-82
2020/12/28 10:58:53;;;;;;;4.82;1.23;;;7.00;97.30;;;;;;5086335;28;20081;-81
2020/12/28 11:01:23;;;;;;;4.63;1.45;;;7.00;97.40;;;;;;5086772;28;20379;-79
2020/12/28 11:03:50;;;;;;;6.38;1.70;;;7.00;97.40;;;;;;5086250;28;20114;-82
2020/12/28 11:06:17;;;;;;;6.53;1.65;;;6.90;97.40;;;;;;5069746;28;20028;-82
2020/12/28 11:08:42;;;;;;;8.73;1.67;;;6.90;97.50;;;;;;5069095;28;20021;-80
2020/12/28 11:11:11;;;;;;;4.25;1.50;;;6.80;97.60;;;;;;5089464;28;20355;-80
2020/12/28 11:13:37;;;;;;;6.57;2.00;;;6.80;97.70;;;;;;5090593;28;20028;-81
2020/12/28 11:16:03;;;;;;;14.13;5.65;;;6.80;97.80;;;;;;5073366;28;20127;-82
2020/12/28 11:18:28;;;;;;;8.57;2.60;;;6.80;97.90;;;;;;5090184;28;20024;-79
2020/12/28 11:20:54;;;;;;;14.07;2.95;;;6.70;97.90;;;;;;5090432;28;20509;-80
2020/12/28 11:23:20;;;;;;;12.63;3.90;;;6.70;98.10;;;;;;5073543;28;20027;-78
2020/12/28 11:25:45;;;;;;;14.70;3.47;;;6.70;98.30;;;;;;5073212;28;20031;-79
2020/12/28 11:28:11;;;;;;;8.88;3.40;;;6.70;98.10;;;;;;5073083;28;20116;-80
2020/12/28 11:30:37;;;;;;;5.78;2.30;;;6.80;98.20;;;;;;5091170;28;20028;-82
2020/12/28 11:33:03;;;;;;;5.57;1.98;;;6.80;98.10;;;;;;5089857;28;20047;-79
2020/12/28 11:35:29;;;;;;;7.72;2.88;;;6.80;98.20;;;;;;5089624;28;20071;-80
2020/12/28 11:37:55;;;;;;;10.18;4.63;;;6.80;98.10;;;;;;5089682;28;20028;-80
2020/12/28 11:40:22;;;;;;;10.85;4.10;;;6.80;98.30;;;;;;5073119;28;20063;-82
2020/12/28 11:42:49;;;;;;;4.30;2.83;;;6.80;98.10;;;;;;5090034;28;20024;-83
2020/12/28 11:45:14;;;;;;;4.85;2.42;;;6.80;98.20;;;;;;5089995;28;20020;-80
2020/12/28 11:47:40;;;;;;;3.85;1.88;;;6.80;98.30;;;;;;5090381;28;20653;-81
2020/12/28 11:50:06;;;;;;;8.43;2.88;;;6.90;98.40;;;;;;5072920;28;20410;-81
2020/12/28 11:52:32;;;;;;;6.15;2.63;;;6.90;98.40;;;;;;5072768;28;20036;-82
2020/12/28 11:54:59;;;;;;;5.72;1.88;;;6.80;98.40;;;;;;5090867;28;20493;-82
2020/12/28 11:57:25;;;;;;;4.63;2.00;;;6.80;98.40;;;;;;5089423;28;20035;-81
2020/12/28 11:59:50;;;;;;;4.20;2.15;;;6.80;98.40;;;;;;5089226;28;20040;-80
2020/12/28 12:02:20;;;;;;;4.38;1.77;;;6.80;98.50;;;;;;5089336;28;20034;-80
2020/12/28 12:04:49;;;;;;;3.00;1.65;;;6.90;98.60;;;;;;5091037;28;20035;-81
2020/12/28 12:07:20;;;;;;;5.35;1.88;;;6.90;98.60;;;;;;5089335;28;20214;-80
2020/12/28 12:09:45;;;;;;;4.07;1.85;;;6.90;98.60;;;;;;5089320;28;20333;-82
2020/12/28 12:12:12;;;;;;;3.30;1.63;;;6.90;98.60;;;;;;5090512;28;20020;-80
2020/12/28 12:14:38;;;;;;;5.38;1.83;;;6.90;98.70;;;;;;5089021;28;20096;-80
2020/12/28 12:17:04;;;;;;;4.55;1.88;;;6.80;98.70;;;;;;5090340;28;20024;-80
2020/12/28 12:19:29;;;;;;;4.47;2.05;;;6.80;99.00;;;;;;5090713;28;20040;-80
2020/12/28 12:21:55;;;;;;;2.25;1.40;;;6.90;98.90;;;;;;5088890;28;20020;-82
2020/12/28 12:24:21;;;;;;;3.58;2.08;;;6.90;98.90;;;;;;5089158;28;20028;-80
2020/12/28 12:26:47;;;;;;;3.83;1.92;;;6.90;98.90;;;;;;5072194;28;20070;-80
2020/12/28 12:29:13;;;;;;;4.32;1.25;;;6.90;98.90;;;;;;5089220;28;20400;-80
2020/12/28 12:31:39;;;;;;;4.00;1.83;;;6.90;98.80;;;;;;5089124;28;20028;-79
2020/12/28 12:34:04;;;;;;;7.32;1.30;;;6.90;98.90;;;;;;5089594;28;20060;-79
2020/12/28 12:36:30;;;;;;;4.22;1.60;;;6.90;98.80;;;;;;5089211;28;20057;-79
2020/12/28 12:38:56;;;;;;;5.53;2.10;;;6.80;98.80;;;;;;5089587;28;20046;-81
2020/12/28 12:41:21;;;;;;;4.95;1.90;;;6.70;98.80;;;;;;5073239;28;20043;-80
2020/12/28 12:43:48;;;;;;;4.82;1.88;;;6.70;99.00;;;;;;5090045;28;20024;-81
2020/12/28 12:46:14;;;;;;;6.03;2.05;;;6.60;99.00;;;;;;5089928;28;20673;-78
2020/12/28 12:48:44;;;;;;;5.00;1.88;;;6.50;99.20;;;;;;5090048;28;20028;-79
2020/12/28 12:51:11;;;;;;;;;;;6.40;99.30;;;;;;5091279;28;20497;-80
2020/12/28 12:53:37;;;;;;;7.90;2.08;;;6.50;99.60;;;;;;5092369;28;19927;-82
2020/12/28 12:56:03;;;;;;;5.35;1.65;;;6.50;99.40;;;;;;5091073;28;20024;-79